createdAt,value
2023-05-04T00:01:20.286Z,14.20
2023-05-04T00:03:49.108Z,14.20
2023-05-04T00:06:17.804Z,14.20
2023-05-04T00:08:46.371Z,14.20
2023-05-04T00:11:15.057Z,14.20
2023-05-04T00:13:43.667Z,14.20
2023-05-04T00:16:12.402Z,14.10
2023-05-04T00:18:41.169Z,14.10
2023-05-04T00:21:09.803Z,14.10
2023-05-04T00:23:38.408Z,14.10
2023-05-04T00:26:07.235Z,14.00
2023-05-04T00:28:35.924Z,14.00
2023-05-04T00:31:04.516Z,14.00
2023-05-04T00:33:33.081Z,13.90
2023-05-04T00:36:06.484Z,13.90
2023-05-04T00:38:38.154Z,13.50
2023-05-04T00:41:06.746Z,13.90
2023-05-04T00:43:35.344Z,13.80
2023-05-04T00:46:04.116Z,13.80
2023-05-04T00:48:33.662Z,13.80
2023-05-04T00:51:02.501Z,13.80
2023-05-04T00:53:31.276Z,13.70
2023-05-04T00:56:00.182Z,13.70
2023-05-04T00:58:29.196Z,13.70
2023-05-04T01:00:57.836Z,13.70
2023-05-04T01:03:28.381Z,13.60
2023-05-04T01:06:14.574Z,13.60
2023-05-04T01:08:48.990Z,13.60
2023-05-04T01:11:23.107Z,13.60
2023-05-04T01:13:52.655Z,13.50
2023-05-04T01:16:21.877Z,13.50
2023-05-04T01:18:50.666Z,13.50
2023-05-04T01:21:19.240Z,13.50
2023-05-04T01:23:47.914Z,13.40
2023-05-04T01:26:19.552Z,13.40
2023-05-04T01:29:02.960Z,13.40
2023-05-04T01:31:32.260Z,13.40
2023-05-04T01:34:01.236Z,13.30
2023-05-04T01:36:30.060Z,13.40
2023-05-04T01:39:00.498Z,13.30
2023-05-04T01:41:30.066Z,13.30
2023-05-04T01:43:59.121Z,13.30
2023-05-04T01:46:27.782Z,13.20
2023-05-04T01:48:56.409Z,13.20
2023-05-04T01:51:25.074Z,13.20
2023-05-04T01:53:53.653Z,13.20
2023-05-04T01:56:22.287Z,13.20
2023-05-04T01:58:50.902Z,13.20
2023-05-04T02:01:19.477Z,13.20
2023-05-04T02:03:48.175Z,13.20
2023-05-04T02:06:16.979Z,13.20
2023-05-04T02:08:46.161Z,13.10
2023-05-04T02:11:16.240Z,13.10
2023-05-04T02:13:44.806Z,13.10
2023-05-04T02:16:13.429Z,13.10
2023-05-04T02:18:41.988Z,13.00
2023-05-04T02:21:10.597Z,13.00
2023-05-04T02:23:39.188Z,13.00
2023-05-04T02:26:08.046Z,13.00
2023-05-04T02:28:36.646Z,13.00
2023-05-04T02:31:05.268Z,13.00
2023-05-04T02:33:33.859Z,12.90
2023-05-04T02:36:02.910Z,12.90
2023-05-04T02:38:31.573Z,12.90
2023-05-04T02:41:00.327Z,12.90
2023-05-04T02:43:28.988Z,12.80
2023-05-04T02:45:57.604Z,12.80
2023-05-04T02:48:26.443Z,12.70
2023-05-04T02:50:55.064Z,12.70
2023-05-04T02:53:23.791Z,12.70
2023-05-04T02:55:52.388Z,12.70
2023-05-04T02:58:20.968Z,12.70
2023-05-04T03:00:51.636Z,12.70
2023-05-04T03:03:20.264Z,12.60
2023-05-04T03:05:48.835Z,12.70
2023-05-04T03:08:17.459Z,12.70
2023-05-04T03:10:46.031Z,12.60
2023-05-04T03:13:14.740Z,12.60
2023-05-04T03:15:43.446Z,12.60
2023-05-04T03:18:12.135Z,12.60
2023-05-04T03:20:41.008Z,12.60
2023-05-04T03:23:09.679Z,12.60
2023-05-04T03:25:38.260Z,12.50
2023-05-04T03:28:06.883Z,12.50
2023-05-04T03:30:36.895Z,12.50
2023-05-04T03:33:05.616Z,12.40
2023-05-04T03:35:34.235Z,12.40
2023-05-04T03:38:02.852Z,12.40
2023-05-04T03:40:31.432Z,12.40
2023-05-04T03:43:00.006Z,12.30
2023-05-04T03:45:28.773Z,12.30
2023-05-04T03:47:57.590Z,12.30
2023-05-04T03:50:26.197Z,12.30
2023-05-04T03:52:54.798Z,12.30
2023-05-04T03:55:23.552Z,12.30
2023-05-04T03:57:52.703Z,12.30
2023-05-04T04:00:21.502Z,12.30
2023-05-04T04:02:50.168Z,12.30
2023-05-04T04:05:18.813Z,12.30
2023-05-04T04:07:47.403Z,12.30
2023-05-04T04:10:16.006Z,12.40
2023-05-04T04:12:44.670Z,12.40
2023-05-04T04:15:13.305Z,12.40
2023-05-04T04:17:41.947Z,12.40
2023-05-04T04:20:11.702Z,12.50
2023-05-04T04:22:40.400Z,12.50
2023-05-04T04:25:10.352Z,12.50
2023-05-04T04:27:39.031Z,12.50
2023-05-04T04:30:08.436Z,12.60
2023-05-04T04:32:37.459Z,12.60
2023-05-04T04:35:06.965Z,12.60
2023-05-04T04:37:35.568Z,12.70
2023-05-04T04:40:04.621Z,12.70
2023-05-04T04:42:33.748Z,12.70
2023-05-04T04:45:03.983Z,12.70
2023-05-04T04:47:33.847Z,12.70
2023-05-04T04:50:04.254Z,12.80
2023-05-04T04:52:33.528Z,12.80
2023-05-04T04:55:02.642Z,12.90
2023-05-04T04:57:31.921Z,13.10
2023-05-04T05:00:02.438Z,13.20
2023-05-04T05:02:31.120Z,13.40
2023-05-04T05:04:59.842Z,13.40
2023-05-04T05:07:28.403Z,13.60
2023-05-04T05:09:57.014Z,13.70
2023-05-04T05:12:25.754Z,13.90
2023-05-04T05:14:54.328Z,14.20
2023-05-04T05:17:23.000Z,14.60
2023-05-04T05:19:51.617Z,15.10
2023-05-04T05:22:20.219Z,15.50
2023-05-04T05:24:48.827Z,16.00
2023-05-04T05:27:17.417Z,16.50
2023-05-04T05:29:46.301Z,16.80
2023-05-04T05:32:14.905Z,17.00
2023-05-04T05:34:43.500Z,16.80
2023-05-04T05:37:12.077Z,17.00
2023-05-04T05:39:40.737Z,17.00
2023-05-04T05:42:09.644Z,17.10
2023-05-04T05:44:38.312Z,17.10
2023-05-04T05:47:06.951Z,17.00
2023-05-04T05:49:35.555Z,16.90
2023-05-04T05:52:04.177Z,16.70
2023-05-04T05:54:33.499Z,16.50
2023-05-04T05:57:04.917Z,16.30
2023-05-04T05:59:33.489Z,16.10
2023-05-04T06:02:02.088Z,16.10
2023-05-04T06:04:30.820Z,16.10
2023-05-04T06:06:59.496Z,16.20
2023-05-04T06:09:28.157Z,16.30
2023-05-04T06:11:57.521Z,16.40
2023-05-04T06:14:26.353Z,16.50
2023-05-04T06:16:55.017Z,16.60
2023-05-04T06:19:23.568Z,16.60
2023-05-04T06:21:53.732Z,16.60
2023-05-04T06:24:22.950Z,16.60
2023-05-04T06:26:51.546Z,16.80
2023-05-04T06:29:20.188Z,17.00
2023-05-04T06:31:48.896Z,17.10
2023-05-04T06:34:17.982Z,17.30
2023-05-04T06:36:46.734Z,17.40
2023-05-04T06:39:15.794Z,17.50
2023-05-04T06:41:44.438Z,17.60
2023-05-04T06:44:13.026Z,17.70
2023-05-04T06:46:41.786Z,17.70
2023-05-04T06:49:10.388Z,17.80
2023-05-04T06:51:39.494Z,18.00
2023-05-04T06:54:08.111Z,18.20
2023-05-04T06:56:37.388Z,18.40
2023-05-04T06:59:06.285Z,18.60
2023-05-04T07:01:36.812Z,18.90
2023-05-04T07:04:05.747Z,19.20
2023-05-04T07:06:34.613Z,19.50
2023-05-04T07:09:03.280Z,19.70
2023-05-04T07:11:31.950Z,19.90
2023-05-04T07:14:00.672Z,20.10
2023-05-04T07:16:29.346Z,20.40
2023-05-04T07:18:58.213Z,20.50
2023-05-04T07:21:28.925Z,20.50
2023-05-04T07:23:57.331Z,20.30
2023-05-04T07:26:26.000Z,20.30
2023-05-04T07:28:54.589Z,20.30
2023-05-04T07:31:23.390Z,20.20
2023-05-04T07:33:51.975Z,20.30
2023-05-04T07:36:20.741Z,20.30
2023-05-04T07:38:49.342Z,20.50
2023-05-04T07:41:17.951Z,20.70
2023-05-04T07:43:47.175Z,20.90
2023-05-04T07:46:16.336Z,21.10
2023-05-04T07:48:44.910Z,21.10
2023-05-04T07:51:14.788Z,21.10
2023-05-04T07:53:43.764Z,21.20
2023-05-04T07:56:12.900Z,21.30
2023-05-04T07:58:41.948Z,21.40
2023-05-04T08:01:10.538Z,21.40
2023-05-04T08:03:40.064Z,21.50
2023-05-04T08:06:09.542Z,21.40
2023-05-04T08:08:38.147Z,21.50
2023-05-04T08:11:19.536Z,21.40
2023-05-04T08:13:37.031Z,21.40
2023-05-04T08:16:06.933Z,21.50
2023-05-04T08:18:35.823Z,21.50
2023-05-04T08:21:04.557Z,21.70
2023-05-04T08:23:33.847Z,22.00
2023-05-04T08:26:06.163Z,22.20
2023-05-04T08:28:38.522Z,22.40
2023-05-04T08:31:08.068Z,22.60
2023-05-04T08:33:36.844Z,22.90
2023-05-04T08:36:06.374Z,22.90
2023-05-04T08:38:35.148Z,23.10
2023-05-04T08:41:05.700Z,23.20
2023-05-04T08:43:38.236Z,23.20
2023-05-04T08:46:08.097Z,23.40
2023-05-04T08:48:37.721Z,23.40
2023-05-04T08:51:08.451Z,23.50
2023-05-04T08:53:38.607Z,23.60
2023-05-04T08:56:09.717Z,23.70
2023-05-04T08:58:41.068Z,23.80
2023-05-04T09:01:11.229Z,24.00
2023-05-04T09:03:41.029Z,24.10
2023-05-04T09:06:11.741Z,24.30
2023-05-04T09:08:41.080Z,24.40
2023-05-04T09:11:10.097Z,24.50
2023-05-04T09:13:39.616Z,24.50
2023-05-04T09:16:08.565Z,24.60
2023-05-04T09:18:38.584Z,24.60
2023-05-04T09:21:08.027Z,24.60
2023-05-04T09:23:52.669Z,24.60
2023-05-04T09:26:31.713Z,24.60
2023-05-04T09:29:16.272Z,24.60
2023-05-04T09:31:52.343Z,24.60
2023-05-04T09:34:21.396Z,24.70
2023-05-04T09:37:02.970Z,24.80
2023-05-04T09:39:31.774Z,25.00
2023-05-04T09:42:00.828Z,25.10
2023-05-04T09:44:29.928Z,25.20
2023-05-04T09:47:00.456Z,25.30
2023-05-04T09:49:37.301Z,25.40
2023-05-04T09:52:07.345Z,25.50
2023-05-04T09:54:38.110Z,25.50
2023-05-04T09:57:16.758Z,25.50
2023-05-04T09:59:45.660Z,25.60
2023-05-04T10:02:23.119Z,25.60
2023-05-04T10:04:50.668Z,25.60
2023-05-04T10:07:20.917Z,25.60
2023-05-04T10:09:51.244Z,25.50
2023-05-04T10:12:20.102Z,25.50
2023-05-04T10:14:48.716Z,25.50
2023-05-04T10:17:39.985Z,25.40
2023-05-04T10:20:14.313Z,25.40
2023-05-04T10:22:57.359Z,25.30
2023-05-04T10:25:37.826Z,25.30
2023-05-04T10:28:26.316Z,25.40
2023-05-04T10:30:58.843Z,25.50
2023-05-04T10:33:29.451Z,25.60
2023-05-04T10:35:58.030Z,25.70
2023-05-04T10:38:37.847Z,25.70
2023-05-04T10:41:17.810Z,25.70
2023-05-04T10:43:51.454Z,25.80
2023-05-04T10:46:21.286Z,25.70
2023-05-04T10:48:50.835Z,25.70
2023-05-04T10:51:25.331Z,25.70
2023-05-04T10:53:54.410Z,25.80
2023-05-04T10:56:27.670Z,25.80
2023-05-04T10:58:56.608Z,25.80
2023-05-04T11:01:25.208Z,25.80
2023-05-04T11:03:55.172Z,25.80
2023-05-04T11:06:26.251Z,25.80
2023-05-04T11:09:03.208Z,25.80
2023-05-04T11:11:34.904Z,25.70
2023-05-04T11:14:03.941Z,25.90
2023-05-04T11:16:32.691Z,25.90
2023-05-04T11:19:12.328Z,26.00
2023-05-04T11:21:41.792Z,26.10
2023-05-04T11:24:10.837Z,26.00
2023-05-04T11:26:51.701Z,26.00
2023-05-04T11:29:20.571Z,26.00
2023-05-04T11:31:56.291Z,26.00
2023-05-04T11:34:24.952Z,25.90
2023-05-04T11:36:54.494Z,25.90
2023-05-04T11:39:23.144Z,25.80
2023-05-04T11:41:51.834Z,26.00
2023-05-04T11:44:20.666Z,26.00
2023-05-04T11:46:51.102Z,26.00
2023-05-04T11:49:19.769Z,25.90
2023-05-04T11:51:48.562Z,25.90
2023-05-04T11:54:23.214Z,26.00
2023-05-04T11:56:51.786Z,26.10
2023-05-04T11:59:20.375Z,26.10
2023-05-04T12:01:49.335Z,26.10
2023-05-04T12:04:18.160Z,26.20
2023-05-04T12:06:46.997Z,26.30
2023-05-04T12:09:16.407Z,26.40
2023-05-04T12:11:48.643Z,26.50
2023-05-04T12:14:18.807Z,26.50
2023-05-04T12:16:59.146Z,26.50
2023-05-04T12:19:28.127Z,26.40
2023-05-04T12:21:58.696Z,26.30
2023-05-04T12:24:28.135Z,26.30
2023-05-04T12:26:56.759Z,26.40
2023-05-04T12:29:25.337Z,26.40
2023-05-04T12:31:53.990Z,26.40
2023-05-04T12:34:22.615Z,26.50
2023-05-04T12:36:51.752Z,26.50
2023-05-04T12:39:20.804Z,26.60
2023-05-04T12:41:49.382Z,26.60
2023-05-04T12:44:18.764Z,26.70
2023-05-04T12:46:47.339Z,26.60
2023-05-04T12:49:15.938Z,26.60
2023-05-04T12:51:47.999Z,26.60
2023-05-04T12:54:16.588Z,26.70
2023-05-04T12:56:45.429Z,26.70
2023-05-04T12:59:14.039Z,26.70
2023-05-04T13:01:42.631Z,26.70
2023-05-04T13:04:11.260Z,26.60
2023-05-04T13:06:39.918Z,26.50
2023-05-04T13:09:08.598Z,26.40
2023-05-04T13:11:37.324Z,26.40
2023-05-04T13:14:07.231Z,26.40
2023-05-04T13:16:35.991Z,26.30
2023-05-04T13:19:04.870Z,26.30
2023-05-04T13:21:33.536Z,26.30
2023-05-04T13:24:02.299Z,26.60
2023-05-04T13:26:30.873Z,26.30
2023-05-04T13:28:59.528Z,26.30
2023-05-04T13:31:28.313Z,26.30
2023-05-04T13:33:57.157Z,26.40
2023-05-04T13:36:25.819Z,26.30
2023-05-04T13:38:54.394Z,26.30
2023-05-04T13:41:23.022Z,26.30
2023-05-04T13:43:51.679Z,26.40
2023-05-04T13:46:21.400Z,26.30
2023-05-04T13:48:49.952Z,26.30
2023-05-04T13:51:18.550Z,26.20
2023-05-04T13:53:47.142Z,26.20
2023-05-04T13:56:15.801Z,26.20
2023-05-04T13:58:44.360Z,26.10
2023-05-04T14:01:12.980Z,26.10
2023-05-04T14:03:41.699Z,26.00
2023-05-04T14:06:11.164Z,26.00
2023-05-04T14:08:39.777Z,26.00
2023-05-04T14:11:08.372Z,26.00
2023-05-04T14:13:36.952Z,26.00
2023-05-04T14:16:05.706Z,26.00
2023-05-04T14:18:34.349Z,26.00
2023-05-04T14:21:02.950Z,26.00
2023-05-04T14:23:31.552Z,26.00
2023-05-04T14:26:00.151Z,26.00
2023-05-04T14:28:30.986Z,25.90
2023-05-04T14:31:01.453Z,25.90
2023-05-04T14:33:30.050Z,25.90
2023-05-04T14:35:58.625Z,26.00
2023-05-04T14:38:27.307Z,26.00
2023-05-04T14:40:55.917Z,26.10
2023-05-04T14:43:24.513Z,26.10
2023-05-04T14:45:53.208Z,26.10
2023-05-04T14:48:23.421Z,26.10
2023-05-04T14:50:52.571Z,26.20
2023-05-04T14:53:22.981Z,26.20
2023-05-04T14:55:51.947Z,26.20
2023-05-04T14:58:20.653Z,26.30
2023-05-04T15:00:49.232Z,26.40
2023-05-04T15:03:18.365Z,26.40
2023-05-04T15:05:47.083Z,26.40
2023-05-04T15:08:15.673Z,26.40
2023-05-04T15:10:44.277Z,26.50
2023-05-04T15:13:14.572Z,26.60
2023-05-04T15:15:43.325Z,26.60
2023-05-04T15:18:12.376Z,26.50
2023-05-04T15:20:41.031Z,26.60
2023-05-04T15:23:12.540Z,26.50
2023-05-04T15:25:42.257Z,26.40
2023-05-04T15:28:11.710Z,26.50
2023-05-04T15:30:41.704Z,26.40
2023-05-04T15:33:10.428Z,26.40
2023-05-04T15:35:39.405Z,26.40
2023-05-04T15:38:08.003Z,26.40
2023-05-04T15:40:36.973Z,26.40
2023-05-04T15:43:05.529Z,26.40
2023-05-04T15:45:34.116Z,26.40
2023-05-04T15:48:02.809Z,26.30
2023-05-04T15:50:33.094Z,26.30
2023-05-04T15:53:01.846Z,26.30
2023-05-04T15:55:30.535Z,26.30
2023-05-04T15:57:59.126Z,26.30
2023-05-04T16:00:27.894Z,26.30
2023-05-04T16:02:56.972Z,26.30
2023-05-04T16:05:26.072Z,26.20
2023-05-04T16:07:55.186Z,26.30
2023-05-04T16:10:24.151Z,26.20
2023-05-04T16:12:52.797Z,26.20
2023-05-04T16:15:21.522Z,26.30
2023-05-04T16:17:50.150Z,26.30
2023-05-04T16:20:18.787Z,26.30
2023-05-04T16:22:47.650Z,26.40
2023-05-04T16:25:16.333Z,26.40
2023-05-04T16:27:44.918Z,26.50
2023-05-04T16:30:15.441Z,26.40
2023-05-04T16:32:44.045Z,26.40
2023-05-04T16:35:12.614Z,26.40
2023-05-04T16:37:41.229Z,26.40
2023-05-04T16:40:14.981Z,26.40
2023-05-04T16:42:44.541Z,26.40
2023-05-04T16:45:13.952Z,26.30
2023-05-04T16:47:43.781Z,26.30
2023-05-04T16:50:12.883Z,26.30
2023-05-04T16:52:41.483Z,26.20
2023-05-04T16:55:12.202Z,26.20
2023-05-04T16:57:41.306Z,26.10
2023-05-04T17:00:10.798Z,26.00
2023-05-04T17:02:39.538Z,26.00
2023-05-04T17:05:10.232Z,25.90
2023-05-04T17:07:42.210Z,25.80
2023-05-04T17:10:11.795Z,25.70
2023-05-04T17:12:40.943Z,25.80
2023-05-04T17:15:11.255Z,25.70
2023-05-04T17:17:41.090Z,25.70
2023-05-04T17:20:12.061Z,25.60
2023-05-04T17:22:42.292Z,25.70
2023-05-04T17:25:12.079Z,25.60
2023-05-04T17:27:41.271Z,25.60
2023-05-04T17:30:11.381Z,25.60
2023-05-04T17:32:40.160Z,25.60
2023-05-04T17:35:20.947Z,25.60
2023-05-04T17:37:39.468Z,25.60
2023-05-04T17:40:09.091Z,25.60
2023-05-04T17:42:38.184Z,25.60
2023-05-04T17:45:07.420Z,25.60
2023-05-04T17:47:36.122Z,25.60
2023-05-04T17:50:05.690Z,25.60
2023-05-04T17:52:35.211Z,25.60
2023-05-04T17:55:03.991Z,25.50
2023-05-04T17:57:34.203Z,25.50
2023-05-04T18:00:04.578Z,25.50
2023-05-04T18:02:34.709Z,25.50
2023-05-04T18:05:03.884Z,25.40
2023-05-04T18:07:32.538Z,25.40
2023-05-04T18:10:02.194Z,25.30
2023-05-04T18:12:30.794Z,25.30
2023-05-04T18:14:59.383Z,25.30
2023-05-04T18:17:29.706Z,25.20
2023-05-04T18:19:58.330Z,25.20
2023-05-04T18:22:27.007Z,25.20
2023-05-04T18:24:55.601Z,25.10
2023-05-04T18:27:24.219Z,25.10
2023-05-04T18:29:53.788Z,25.00
2023-05-04T18:32:22.385Z,25.00
2023-05-04T18:34:52.606Z,24.90
2023-05-04T18:37:22.621Z,24.90
2023-05-04T18:39:51.399Z,24.80
2023-05-04T18:42:20.064Z,24.80
2023-05-04T18:44:48.614Z,24.70
2023-05-04T18:47:17.227Z,24.70
2023-05-04T18:49:47.734Z,24.60
2023-05-04T18:52:16.304Z,24.60
2023-05-04T18:54:44.918Z,24.50
2023-05-04T18:57:14.261Z,24.40
2023-05-04T18:59:42.906Z,24.40
2023-05-04T19:02:12.516Z,24.30
2023-05-04T19:04:41.096Z,24.30
2023-05-04T19:07:12.660Z,24.10
2023-05-04T19:09:41.277Z,24.10
2023-05-04T19:12:09.853Z,24.00
2023-05-04T19:14:38.444Z,24.00
2023-05-04T19:17:07.324Z,23.90
2023-05-04T19:19:38.986Z,23.80
2023-05-04T19:22:07.681Z,23.70
2023-05-04T19:24:37.523Z,23.60
2023-05-04T19:27:06.242Z,23.60
2023-05-04T19:29:34.966Z,23.50
2023-05-04T19:32:15.676Z,23.40
2023-05-04T19:34:34.020Z,23.40
2023-05-04T19:37:02.594Z,23.20
2023-05-04T19:39:31.258Z,23.20
2023-05-04T19:41:59.807Z,23.10
2023-05-04T19:44:28.443Z,23.00
2023-05-04T19:46:57.077Z,22.90
2023-05-04T19:49:25.719Z,22.90
2023-05-04T19:51:54.434Z,22.80
2023-05-04T19:54:23.042Z,22.80
2023-05-04T19:56:51.648Z,22.70
2023-05-04T19:59:20.425Z,22.60
2023-05-04T20:01:49.027Z,22.60
2023-05-04T20:04:18.737Z,22.50
2023-05-04T20:06:48.551Z,22.90
2023-05-04T20:09:17.144Z,22.40
2023-05-04T20:11:46.960Z,22.40
2023-05-04T20:14:15.564Z,22.30
2023-05-04T20:16:44.230Z,22.20
2023-05-04T20:19:13.005Z,22.20
2023-05-04T20:21:41.656Z,22.20
2023-05-04T20:24:11.229Z,22.10
2023-05-04T20:26:39.846Z,22.10
2023-05-04T20:29:08.737Z,22.00
2023-05-04T20:31:37.360Z,22.00
2023-05-04T20:34:05.924Z,22.00
2023-05-04T20:36:34.616Z,21.90
2023-05-04T20:39:04.907Z,21.80
2023-05-04T20:41:34.140Z,21.80
2023-05-04T20:44:03.034Z,21.70
2023-05-04T20:46:31.937Z,21.70
2023-05-04T20:49:02.659Z,21.60
2023-05-04T20:51:32.448Z,21.60
2023-05-04T20:54:01.582Z,21.60
2023-05-04T20:56:30.372Z,21.60
2023-05-04T20:58:59.370Z,21.50
2023-05-04T21:01:29.755Z,21.60
2023-05-04T21:03:58.507Z,21.50
2023-05-04T21:06:27.449Z,21.50
2023-05-04T21:08:56.900Z,21.50
2023-05-04T21:11:25.870Z,21.50
2023-05-04T21:13:54.624Z,21.50
2023-05-04T21:16:23.368Z,21.50
2023-05-04T21:18:53.851Z,21.50
2023-05-04T21:21:22.485Z,21.40
2023-05-04T21:23:51.239Z,21.40
2023-05-04T21:26:20.068Z,21.40
2023-05-04T21:28:48.889Z,21.40
2023-05-04T21:31:17.755Z,21.40
2023-05-04T21:33:46.300Z,21.40
2023-05-04T21:36:16.488Z,21.30
2023-05-04T21:38:45.261Z,21.30
2023-05-04T21:41:17.777Z,21.30
2023-05-04T21:43:46.492Z,21.20
2023-05-04T21:46:15.691Z,21.20
2023-05-04T21:48:44.431Z,21.20
2023-05-04T21:51:13.111Z,21.20
2023-05-04T21:53:46.059Z,21.20
2023-05-04T21:56:14.750Z,21.20
2023-05-04T21:58:43.502Z,21.20
2023-05-04T22:01:17.069Z,21.10
2023-05-04T22:03:46.799Z,21.10
2023-05-04T22:06:15.504Z,21.10
2023-05-04T22:08:44.760Z,21.10
2023-05-04T22:11:13.358Z,21.00
2023-05-04T22:13:42.010Z,21.00
2023-05-04T22:16:10.681Z,21.00
2023-05-04T22:18:39.435Z,21.00
2023-05-04T22:21:08.078Z,20.90
2023-05-04T22:23:36.646Z,20.90
2023-05-04T22:26:05.295Z,20.80
2023-05-04T22:28:33.981Z,20.80
2023-05-04T22:31:02.670Z,20.80
2023-05-04T22:33:31.409Z,20.70
2023-05-04T22:36:00.257Z,20.70
2023-05-04T22:38:29.100Z,20.70
2023-05-04T22:40:57.759Z,20.70
2023-05-04T22:43:26.444Z,20.70
2023-05-04T22:45:55.129Z,20.70
2023-05-04T22:48:23.890Z,20.70
2023-05-04T22:50:53.039Z,20.70
2023-05-04T22:53:21.815Z,20.60
2023-05-04T22:55:50.401Z,20.60
2023-05-04T22:58:19.030Z,20.60
2023-05-04T23:00:48.679Z,20.60
2023-05-04T23:03:17.680Z,20.50
2023-05-04T23:05:46.393Z,20.50
2023-05-04T23:08:15.062Z,20.50
2023-05-04T23:10:46.918Z,20.50
2023-05-04T23:13:15.573Z,20.40
2023-05-04T23:15:44.403Z,20.40
2023-05-04T23:18:13.045Z,20.40
2023-05-04T23:20:41.662Z,20.40
2023-05-04T23:23:10.237Z,20.40
2023-05-04T23:25:38.854Z,20.70
2023-05-04T23:28:07.489Z,20.30
2023-05-04T23:30:36.134Z,20.30
2023-05-04T23:33:05.413Z,20.30
2023-05-04T23:35:34.003Z,20.30
2023-05-04T23:38:03.760Z,20.30
2023-05-04T23:40:32.755Z,20.30
2023-05-04T23:43:01.416Z,20.30
2023-05-04T23:45:30.025Z,20.20
2023-05-04T23:47:58.715Z,20.20
2023-05-04T23:50:27.303Z,20.20
2023-05-04T23:52:55.885Z,20.20
2023-05-04T23:55:26.656Z,20.20
2023-05-04T23:57:57.095Z,20.20
